Terminal Aerodrome Forecast
Issued by NWS Jackson, MS

Home | Current Version | Previous Version | Text Only | Print | Product List | Glossary On
Versions: 1 2 3 4 5 6 7 8 9 10 11 12 13 14
511
FTUS44 KJAN 220520
TAFGWO
TAF
KGWO 220520Z 2206/2306 11009KT P6SM SKC
     FM220700 15014KT 6SM -SHRA VCTS BKN015CB OVC025
     FM221100 16009KT 4SM SHRA VCTS OVC012CB
     FM221600 17008KT 6SM -SHRA VCTS BKN015CB OVC025
     FM222100 24010KT P6SM BKN025
     FM230100 21010KT P6SM OVC050=

USA.gov is the U.S. government's official web portal to all federal, state and local government web resources and services.